Time;durP1;ratioP1;P1;durP2;ratioP2;P2;SDS_P1;SDS_P2;PMS_P1;PMS_P2;Temp;Humidity;BMP_temperature;BMP_pressure;BME280_temperature;BME280_humidity;BME280_pressure;Samples;Min_cycle;Max_cycle;Signal;HPM_P1;HPM_P2
2023/09/19 00:00:06;;;;;;;1.50;1.40;;;;;;;19.00;75.49;99246.25;5084391;28;20560;-84
2023/09/19 00:02:33;;;;;;;2.30;1.17;;;;;;;18.99;75.65;99244.59;5083577;28;21074;-87
2023/09/19 00:04:58;;;;;;;2.13;1.10;;;;;;;18.99;75.50;99248.06;5085431;28;21047;-86
2023/09/19 00:07:24;;;;;;;3.13;1.43;;;;;;;18.98;75.38;99241.09;5077594;28;20226;-87
2023/09/19 00:09:49;;;;;;;2.47;1.30;;;;;;;18.98;75.29;99248.22;5076888;28;20216;-86
2023/09/19 00:12:15;;;;;;;2.40;1.37;;;;;;;18.96;75.39;99245.75;5060159;28;20197;-89
2023/09/19 00:14:40;;;;;;;2.70;1.37;;;;;;;18.95;75.34;99248.53;5085089;28;20200;-86
2023/09/19 00:17:08;;;;;;;2.57;1.60;;;;;;;18.93;75.35;99253.19;5088284;28;20201;-89
2023/09/19 00:19:37;;;;;;;2.60;1.80;;;;;;;18.92;74.99;99251.53;5084557;28;20273;-88
2023/09/19 00:22:03;;;;;;;2.77;1.27;;;;;;;18.91;74.93;99257.84;5086732;28;20438;-84
2023/09/19 00:24:29;;;;;;;2.20;1.30;;;;;;;18.89;74.78;99250.03;5077487;28;20762;-84
2023/09/19 00:26:55;;;;;;;1.50;1.03;;;;;;;18.89;74.81;99254.50;5076237;28;20450;-87
2023/09/19 00:29:23;;;;;;;1.63;1.17;;;;;;;18.88;74.67;99250.19;5053746;28;20224;-83
2023/09/19 00:31:50;;;;;;;1.10;1.00;;;;;;;18.86;74.54;99255.66;5055873;28;20494;-83
2023/09/19 00:34:16;;;;;;;1.73;1.20;;;;;;;18.86;74.71;99257.50;5073113;28;20442;-88
2023/09/19 00:36:43;;;;;;;1.37;1.10;;;;;;;18.85;74.47;99248.69;5056670;28;20333;-85
2023/09/19 00:39:08;;;;;;;1.50;1.30;;;;;;;18.86;74.58;99252.19;5056077;28;20459;-85
2023/09/19 00:41:35;;;;;;;3.10;1.20;;;;;;;18.84;74.41;99260.31;5074624;28;20806;-88
2023/09/19 00:44:02;;;;;;;4.00;1.20;;;;;;;18.85;74.42;99253.16;5079438;28;20191;-85
2023/09/19 00:46:28;;;;;;;1.40;1.10;;;;;;;18.85;74.31;99254.00;5076502;28;20455;-84
2023/09/19 00:48:54;;;;;;;1.00;0.90;;;;;;;18.82;74.25;99253.47;5076901;28;20829;-87
2023/09/19 00:51:22;;;;;;;1.23;1.13;;;;;;;18.84;73.97;99262.13;5059723;28;20831;-86
2023/09/19 00:53:48;;;;;;;1.93;1.40;;;;;;;18.82;74.10;99253.47;5077463;28;20443;-84
2023/09/19 00:56:18;;;;;;;2.10;1.07;;;;;;;18.81;73.57;99255.31;5059538;28;20850;-88
2023/09/19 00:58:44;;;;;;;1.33;1.20;;;;;;;18.79;73.62;99266.13;5083254;28;20452;-87
2023/09/19 01:01:14;;;;;;;1.80;1.27;;;;;;;18.79;73.73;99266.13;5057470;28;20456;-85
2023/09/19 01:03:44;;;;;;;2.17;1.47;;;;;;;18.78;73.14;99277.75;5058051;28;20523;-87
2023/09/19 01:06:09;;;;;;;1.80;1.07;;;;;;;18.78;73.31;99275.09;5077081;28;20440;-85
2023/09/19 01:08:36;;;;;;;3.47;1.00;;;;;;;18.78;73.19;99264.44;5074947;28;20983;-86
2023/09/19 01:11:24;;;;;;;1.60;0.83;;;;;;;18.78;73.19;99274.25;5057292;28;20281;-86
2023/09/19 01:13:58;;;;;;;2.17;1.17;;;;;;;18.79;72.94;99276.78;5078255;28;20889;-84
2023/09/19 01:16:43;;;;;;;2.30;0.90;;;;;;;18.81;73.06;99281.09;5077759;28;20414;-88
2023/09/19 01:19:33;;;;;;;0.97;0.80;;;;;;;18.79;72.84;99287.41;5074484;28;20457;-83
2023/09/19 01:22:21;;;;;;;1.37;1.00;;;;;;;18.78;72.96;99280.41;5051177;28;20449;-85
2023/09/19 01:25:05;;;;;;;2.03;0.80;;;;;;;18.78;73.02;99283.06;5047638;28;20925;-87
2023/09/19 01:28:08;;;;;;;0.97;0.80;;;;;;;18.76;72.75;99279.72;5071462;28;20438;-86
2023/09/19 01:30:39;;;;;;;1.13;0.87;;;;;;;18.74;72.59;99280.84;5051336;28;20857;-86
2023/09/19 01:33:06;;;;;;;2.47;1.00;;;;;;;18.73;72.48;99282.66;5070491;28;20467;-85
2023/09/19 01:35:34;;;;;;;4.20;1.03;;;;;;;18.72;72.21;99277.53;5066734;28;20454;-85
2023/09/19 01:38:02;;;;;;;3.50;1.10;;;;;;;18.73;72.21;99281.84;5050752;28;21025;-86
2023/09/19 01:40:28;;;;;;;1.17;0.90;;;;;;;18.71;72.08;99274.03;5068726;28;20818;-86
2023/09/19 01:43:12;;;;;;;1.50;1.03;;;;;;;18.71;72.00;99279.34;5068905;28;20456;-86
2023/09/19 01:45:49;;;;;;;0.83;0.77;;;;;;;18.72;71.89;99289.00;5066422;28;20666;-88
2023/09/19 01:48:42;;;;;;;1.13;0.90;;;;;;;18.71;71.49;99282.03;5048067;28;20455;-87
2023/09/19 01:51:11;;;;;;;1.53;0.90;;;;;;;18.72;71.67;99285.50;5049112;28;21078;-85
2023/09/19 01:53:51;;;;;;;1.23;1.03;;;;;;;18.73;71.67;99287.16;5043335;28;20585;-87
2023/09/19 01:56:25;;;;;;;2.50;0.90;;;;;;;18.72;71.58;99283.66;5045797;28;20433;-87
2023/09/19 01:58:59;;;;;;;1.80;1.00;;;;;;;18.72;71.58;99291.66;5050226;28;20966;-87
2023/09/19 02:01:26;;;;;;;1.77;1.00;;;;;;;18.73;71.54;99298.63;5044259;28;20446;-85
2023/09/19 02:03:53;;;;;;;2.37;1.00;;;;;;;18.74;71.45;99302.13;5064631;28;20930;-85
2023/09/19 02:06:21;;;;;;;1.10;0.90;;;;;;;18.74;71.42;99296.81;5047945;28;20463;-85
2023/09/19 02:08:47;;;;;;;2.00;1.00;;;;;;;18.72;71.28;99302.28;5062358;28;20446;-85
2023/09/19 02:11:13;;;;;;;0.70;0.70;;;;;;;18.72;71.23;99304.97;5060030;28;20467;-85
2023/09/19 02:13:40;;;;;;;2.53;0.90;;;;;;;18.72;71.17;99302.28;5049217;28;20461;-86
2023/09/19 02:16:07;;;;;;;2.10;1.17;;;;;;;18.71;71.11;99297.97;5049138;28;20470;-85
2023/09/19 02:18:34;;;;;;;1.53;0.90;;;;;;;18.72;71.00;99309.44;5068360;28;20565;-85
2023/09/19 02:21:01;;;;;;;1.67;0.80;;;;;;;18.71;70.96;99308.63;5049630;28;20796;-86
2023/09/19 02:23:27;;;;;;;1.17;0.87;;;;;;;18.68;71.35;99316.88;5063302;28;20460;-85
2023/09/19 02:25:54;;;;;;;1.10;0.97;;;;;;;18.67;71.51;99322.38;5044402;28;21302;-86
2023/09/19 02:28:22;;;;;;;1.47;1.00;;;;;;;18.64;71.39;99318.22;5048189;28;20556;-86
2023/09/19 02:30:48;;;;;;;1.10;0.80;;;;;;;18.64;71.46;99312.06;5065191;28;20511;-87
2023/09/19 02:33:16;;;;;;;0.70;0.70;;;;;;;18.62;71.53;99312.19;5065822;28;20760;-88
2023/09/19 02:35:42;;;;;;;2.47;1.00;;;;;;;18.61;71.74;99313.22;5050019;28;20473;-86
2023/09/19 02:38:11;;;;;;;3.37;0.97;;;;;;;18.59;71.82;99307.19;5065113;28;20197;-85
2023/09/19 02:40:36;;;;;;;1.23;1.10;;;;;;;18.57;72.10;99310.00;5068655;28;20212;-87
2023/09/19 02:43:02;;;;;;;3.93;0.90;;;;;;;18.57;71.94;99320.66;5047841;28;20506;-89
2023/09/19 02:45:32;;;;;;;1.87;0.80;;;;;;;18.56;72.17;99316.31;5048237;28;20196;-87
2023/09/19 02:47:58;;;;;;;2.17;1.00;;;;;;;18.55;72.09;99306.69;5050832;28;20469;-88
2023/09/19 02:50:23;;;;;;;0.97;0.73;;;;;;;18.55;72.22;99311.16;5051389;28;20504;-86
2023/09/19 02:52:49;;;;;;;1.10;1.00;;;;;;;18.55;72.05;99312.00;5064843;28;21133;-85
2023/09/19 02:55:17;;;;;;;1.30;1.00;;;;;;;18.54;72.16;99309.50;5053114;28;20196;-88
2023/09/19 02:57:55;;;;;;;2.40;0.80;;;;;;;18.51;71.90;99309.81;5059771;28;20250;-86
2023/09/19 03:00:23;;;;;;;0.87;0.70;;;;;;;18.50;71.96;99313.47;5055119;28;20493;-87
2023/09/19 03:02:50;;;;;;;2.30;0.90;;;;;;;18.48;71.97;99308.28;5057894;28;20477;-85
2023/09/19 03:05:16;;;;;;;1.30;0.90;;;;;;;18.48;71.98;99318.09;5068415;28;20447;-88
2023/09/19 03:07:43;;;;;;;1.10;0.90;;;;;;;18.47;71.65;99316.41;5047890;28;20444;-87
2023/09/19 03:10:09;;;;;;;1.00;0.80;;;;;;;18.43;72.20;99323.88;5067479;28;20987;-85
2023/09/19 03:12:35;;;;;;;1.17;0.80;;;;;;;18.44;71.81;99325.53;5053459;28;20986;-85
2023/09/19 03:15:01;;;;;;;2.50;0.97;;;;;;;18.45;71.78;99326.41;5072535;28;20473;-86
2023/09/19 03:17:28;;;;;;;1.10;0.70;;;;;;;18.45;71.89;99334.38;5061764;28;20211;-86
2023/09/19 03:19:53;;;;;;;0.90;0.87;;;;;;;18.44;71.75;99340.66;5079865;28;20458;-86
2023/09/19 03:22:19;;;;;;;1.47;0.90;;;;;;;18.42;71.81;99332.84;5059818;28;20228;-86
2023/09/19 03:24:46;;;;;;;1.10;1.00;;;;;;;18.42;71.77;99329.38;5060988;28;20489;-86
2023/09/19 03:27:14;;;;;;;1.90;0.90;;;;;;;18.41;71.64;99325.03;5043937;28;20267;-88
2023/09/19 03:29:40;;;;;;;1.27;0.90;;;;;;;18.41;71.73;99330.34;5077541;28;20455;-87
2023/09/19 03:32:05;;;;;;;0.90;0.80;;;;;;;18.39;71.57;99324.31;5059886;28;20476;-85
2023/09/19 03:34:31;;;;;;;1.20;0.80;;;;;;;18.37;71.59;99331.66;5060961;28;20211;-85
2023/09/19 03:36:57;;;;;;;1.60;0.97;;;;;;;18.34;71.80;99325.66;5044190;28;20758;-85
2023/09/19 03:39:22;;;;;;;1.10;0.87;;;;;;;18.32;71.61;99332.94;5075825;28;20323;-85
2023/09/19 03:41:49;;;;;;;0.97;0.80;;;;;;;18.31;71.51;99331.28;5046350;28;20192;-84
2023/09/19 03:44:15;;;;;;;1.30;1.20;;;;;;;18.30;71.78;99329.59;5063135;28;20571;-85
2023/09/19 03:46:40;;;;;;;2.33;1.20;;;;;;;18.31;71.76;99335.75;5040766;28;21296;-85
2023/09/19 03:49:06;;;;;;;1.27;0.80;;;;;;;18.29;71.62;99319.94;5049808;28;20308;-84
2023/09/19 03:51:34;;;;;;;0.87;0.70;;;;;;;18.26;71.98;99314.94;5046710;28;21002;-85
2023/09/19 03:53:59;;;;;;;4.03;0.90;;;;;;;18.27;71.56;99315.78;5044048;28;20387;-85
2023/09/19 03:56:26;;;;;;;1.67;0.90;;;;;;;18.26;71.44;99317.59;5061544;28;20866;-85
2023/09/19 03:58:51;;;;;;;1.67;1.00;;;;;;;18.23;71.40;99312.59;5060344;28;21168;-83
2023/09/19 04:01:18;;;;;;;2.57;1.10;;;;;;;18.24;71.37;99313.44;5043295;28;20625;-82
2023/09/19 04:03:47;;;;;;;1.00;0.90;;;;;;;18.24;71.53;99316.09;5044048;28;20216;-81
2023/09/19 04:06:17;;;;;;;2.00;0.90;;;;;;;18.27;71.58;99323.75;5068211;28;20463;-81
2023/09/19 04:08:44;;;;;;;2.47;1.17;;;;;;;18.27;71.04;99329.91;5052074;28;20556;-80
2023/09/19 04:11:11;;;;;;;1.03;0.90;;;;;;;18.27;71.48;99332.56;5048641;28;21287;-81
2023/09/19 04:13:36;;;;;;;1.83;1.20;;;;;;;18.28;71.41;99339.56;5074016;28;20508;-81
2023/09/19 04:16:10;;;;;;;1.10;0.90;;;;;;;18.29;71.40;99327.94;5050983;28;20201;-81
2023/09/19 04:18:38;;;;;;;1.57;1.00;;;;;;;18.31;71.23;99341.09;5071522;28;20489;-81
2023/09/19 04:21:05;;;;;;;1.83;0.90;;;;;;;18.32;71.45;99332.09;5057502;28;20443;-81
2023/09/19 04:23:33;;;;;;;2.10;1.70;;;;;;;18.33;71.19;99331.97;5053297;28;20484;-81
2023/09/19 04:25:59;;;;;;;1.13;1.00;;;;;;;18.34;71.17;99340.78;5072943;28;20889;-81
2023/09/19 04:28:27;;;;;;;2.20;0.90;;;;;;;18.33;71.22;99350.56;5054892;28;20971;-81
2023/09/19 04:30:53;;;;;;;2.13;1.03;;;;;;;18.37;71.15;99350.25;5071219;28;20475;-81
2023/09/19 04:33:19;;;;;;;1.93;1.13;;;;;;;18.36;71.35;99352.06;5073016;28;20499;-81
2023/09/19 04:35:44;;;;;;;2.50;1.10;;;;;;;18.37;71.30;99358.25;5070711;28;20484;-80
2023/09/19 04:38:10;;;;;;;1.03;0.90;;;;;;;18.37;71.47;99367.06;5072164;28;20676;-80
2023/09/19 04:40:35;;;;;;;3.20;1.33;;;;;;;18.38;71.76;99368.72;5070676;28;20235;-81
2023/09/19 04:43:01;;;;;;;1.17;1.00;;;;;;;18.36;71.46;99368.03;5073342;28;20205;-83
2023/09/19 04:45:27;;;;;;;7.43;1.60;;;;;;;18.35;71.84;99366.34;5074563;28;20892;-81
2023/09/19 04:47:54;;;;;;;1.93;1.40;;;;;;;18.34;71.89;99365.53;5070091;28;20193;-81
2023/09/19 04:50:22;;;;;;;3.47;1.27;;;;;;;18.33;72.01;99371.84;5077835;28;20539;-81
2023/09/19 04:52:50;;;;;;;1.47;1.13;;;;;;;18.34;71.97;99378.00;5078305;28;20467;-81
2023/09/19 04:55:18;;;;;;;1.23;1.07;;;;;;;18.32;72.10;99379.97;5078403;28;20457;-80
2023/09/19 04:57:48;;;;;;;1.50;1.10;;;;;;;18.31;72.37;99378.31;5076043;28;20717;-81
2023/09/19 05:00:19;;;;;;;2.33;2.20;;;;;;;18.29;72.23;99374.97;5056710;28;20454;-81
2023/09/19 05:02:44;;;;;;;1.60;1.33;;;;;;;18.30;72.38;99379.28;5071508;28;20468;-81
2023/09/19 05:05:11;;;;;;;2.07;1.30;;;;;;;18.29;72.21;99382.94;5067717;28;21081;-81
2023/09/19 05:07:37;;;;;;;2.70;1.23;;;;;;;18.28;72.42;99383.91;5067754;28;20203;-81
2023/09/19 05:10:07;;;;;;;3.40;1.10;;;;;;;18.28;72.32;99387.41;5073079;28;20451;-80
2023/09/19 05:12:34;;;;;;;3.57;1.63;;;;;;;18.28;72.65;99390.09;5065581;28;20475;-80
2023/09/19 05:15:00;;;;;;;3.20;1.30;;;;;;;18.30;72.49;99384.59;5069173;28;20614;-81
2023/09/19 05:17:25;;;;;;;1.93;1.10;;;;;;;18.31;72.66;99394.25;5072180;28;20448;-80
2023/09/19 05:19:51;;;;;;;1.40;0.80;;;;;;;18.32;72.56;99390.59;5083580;28;20445;-81
2023/09/19 05:22:18;;;;;;;1.07;0.90;;;;;;;18.32;72.27;99391.44;5068198;28;20448;-81
2023/09/19 05:24:47;;;;;;;7.73;1.30;;;;;;;18.33;72.45;99398.44;5064148;28;20193;-81
2023/09/19 05:27:12;;;;;;;1.30;1.10;;;;;;;18.34;72.31;99400.09;5066001;28;20465;-80
2023/09/19 05:29:38;;;;;;;2.73;1.20;;;;;;;18.33;72.34;99400.22;5061120;28;20463;-80
2023/09/19 05:32:05;;;;;;;3.93;1.53;;;;;;;18.34;72.33;99405.41;5063647;28;20286;-81
2023/09/19 05:34:30;;;;;;;1.83;1.23;;;;;;;18.37;72.22;99406.09;5065776;28;20207;-81
2023/09/19 05:36:56;;;;;;;3.40;2.23;;;;;;;18.40;72.57;99411.94;5066308;28;20436;-81
2023/09/19 05:39:22;;;;;;;1.30;1.17;;;;;;;18.41;72.65;99421.59;5064492;28;20201;-81
2023/09/19 05:41:48;;;;;;;2.13;1.33;;;;;;;18.42;72.55;99427.75;5065851;28;20564;-80
2023/09/19 05:44:14;;;;;;;5.40;1.30;;;;;;;18.41;72.43;99428.72;5058952;28;20451;-80
2023/09/19 05:46:39;;;;;;;1.97;1.20;;;;;;;18.41;72.41;99442.03;5045444;28;20969;-80
2023/09/19 05:49:05;;;;;;;3.40;1.20;;;;;;;18.42;72.23;99438.41;5065453;28;20439;-80
2023/09/19 05:51:31;;;;;;;4.23;1.30;;;;;;;18.42;72.15;99449.88;5066340;28;20684;-80
2023/09/19 05:53:57;;;;;;;2.70;1.27;;;;;;;18.42;72.12;99455.19;5048320;28;20254;-80
2023/09/19 05:56:23;;;;;;;1.30;1.00;;;;;;;18.43;72.46;99459.50;5058894;28;20287;-80
2023/09/19 05:58:49;;;;;;;1.33;1.20;;;;;;;18.43;72.76;99456.00;5062972;28;20537;-80
2023/09/19 06:01:15;;;;;;;1.63;1.30;;;;;;;18.40;72.64;99456.31;5065146;28;20205;-80
2023/09/19 06:03:40;;;;;;;1.73;1.60;;;;;;;18.35;72.92;99454.94;5067857;28;20516;-80
2023/09/19 06:06:06;;;;;;;2.37;1.50;;;;;;;18.33;73.36;99461.41;5065840;28;20742;-80
2023/09/19 06:08:33;;;;;;;3.57;1.20;;;;;;;18.29;73.50;99463.53;5061722;28;20201;-81
2023/09/19 06:10:59;;;;;;;2.30;1.27;;;;;;;18.25;73.70;99462.16;5051061;28;20556;-81
2023/09/19 06:13:26;;;;;;;3.50;1.77;;;;;;;18.24;73.99;99468.47;5065071;28;20987;-81
2023/09/19 06:15:52;;;;;;;2.27;1.60;;;;;;;18.23;74.05;99471.28;5070937;28;21103;-80
2023/09/19 06:18:19;;;;;;;3.03;1.40;;;;;;;18.23;74.24;99468.63;5065334;28;20826;-79
2023/09/19 06:20:50;;;;;;;2.03;1.50;;;;;;;18.22;74.66;99470.44;5066128;28;20739;-80
2023/09/19 06:23:17;;;;;;;1.90;1.67;;;;;;;18.23;74.48;99477.44;5073836;28;20435;-79
2023/09/19 06:25:43;;;;;;;2.13;1.50;;;;;;;18.24;74.87;99475.59;5071206;28;20994;-79
2023/09/19 06:28:12;;;;;;;1.70;1.60;;;;;;;18.25;75.11;99479.94;5070662;28;20449;-80
2023/09/19 06:30:40;;;;;;;2.27;1.80;;;;;;;18.24;75.22;99481.75;5066600;28;20447;-80
2023/09/19 06:33:06;;;;;;;2.63;1.83;;;;;;;18.26;75.43;99482.44;5068511;28;20525;-80
2023/09/19 06:35:35;;;;;;;2.08;1.48;;;;;;;18.30;75.41;99477.66;5044895;28;20503;-80
2023/09/19 06:38:05;;;;;;;3.00;1.90;;;;;;;18.34;75.17;99479.88;5065594;28;20231;-79
2023/09/19 06:40:31;;;;;;;2.00;1.70;;;;;;;18.40;74.93;99480.25;5065442;28;20455;-80
2023/09/19 06:42:56;;;;;;;2.80;1.77;;;;;;;18.45;74.79;99478.81;5067031;28;20454;-80
2023/09/19 06:45:26;;;;;;;8.30;2.30;;;;;;;18.50;75.06;99481.88;5068336;28;20583;-79
2023/09/19 06:47:52;;;;;;;2.00;1.80;;;;;;;18.56;74.72;99485.75;5065998;28;20693;-79
2023/09/19 06:50:19;;;;;;;1.73;1.50;;;;;;;18.60;74.35;99487.09;5063778;28;20457;-79
2023/09/19 06:52:48;;;;;;;2.20;1.20;;;;;;;18.64;74.80;99485.81;5061928;28;20275;-80
2023/09/19 06:55:16;;;;;;;4.03;1.63;;;;;;;18.69;74.67;99493.34;5063443;28;20454;-80
2023/09/19 06:57:43;;;;;;;2.03;1.47;;;;;;;18.74;74.08;99486.59;5063893;28;21264;-79
2023/09/19 07:00:18;;;;;;;2.60;1.60;;;;;;;18.82;74.19;99498.28;5063262;28;20459;-79
2023/09/19 07:03:10;;;;;;;3.70;1.77;;;;;;;18.93;73.71;99498.91;5067193;28;20450;-79
2023/09/19 07:05:37;;;;;;;5.87;1.50;;;;;;;19.04;73.11;99503.16;5068509;28;21122;-79
2023/09/19 07:08:03;;;;;;;1.83;1.73;;;;;;;19.11;72.71;99501.53;5063253;28;20711;-80
2023/09/19 07:10:30;;;;;;;2.27;1.33;;;;;;;19.21;72.42;99501.44;5064975;28;20498;-79
2023/09/19 07:13:10;;;;;;;1.93;1.10;;;;;;;19.27;72.16;99502.63;5062382;28;20479;-79
2023/09/19 07:15:38;;;;;;;1.80;1.00;;;;;;;19.30;71.80;99505.00;5068233;28;20431;-79
2023/09/19 07:18:05;;;;;;;1.83;1.10;;;;;;;19.29;71.38;99496.16;5062043;28;20702;-79
2023/09/19 07:20:32;;;;;;;3.43;1.60;;;;;;;19.31;71.07;99493.34;5059576;28;20504;-80
2023/09/19 07:23:01;;;;;;;1.70;1.60;;;;;;;19.33;71.09;99497.50;5067389;28;20476;-79
2023/09/19 07:25:27;;;;;;;2.20;1.90;;;;;;;19.38;70.99;99505.88;5060414;28;20456;-80
2023/09/19 07:27:55;;;;;;;3.23;2.20;;;;;;;19.44;70.58;99499.94;5057351;28;20490;-81
2023/09/19 07:30:20;;;;;;;2.73;1.70;;;;;;;19.53;70.17;99497.31;5043448;28;20481;-80
2023/09/19 07:32:46;;;;;;;1.93;1.20;;;;;;;19.61;69.88;99502.69;5060088;28;20633;-80
2023/09/19 07:35:12;;;;;;;1.77;1.57;;;;;;;19.70;69.30;99500.94;5060399;28;20559;-81
2023/09/19 07:37:37;;;;;;;1.70;1.20;;;;;;;19.81;68.85;99501.47;5057555;28;20623;-80
2023/09/19 07:40:09;;;;;;;1.43;1.10;;;;;;;19.94;68.71;99503.72;5071468;28;20710;-80
2023/09/19 07:42:40;;;;;;;1.90;1.10;;;;;;;20.27;67.66;99501.97;5068383;28;20218;-80
2023/09/19 07:45:07;;;;;;;2.83;1.50;;;;;;;21.00;65.39;99508.44;5065342;28;20447;-80
2023/09/19 07:47:33;;;;;;;1.67;1.10;;;;;;;21.87;62.31;99501.47;5061580;28;20460;-80
2023/09/19 07:50:01;;;;;;;3.50;1.70;;;;;;;22.79;59.45;99506.19;5049307;28;20845;-81
2023/09/19 07:52:27;;;;;;;2.90;1.20;;;;;;;23.57;57.25;99505.00;5068625;28;20456;-80
2023/09/19 07:54:53;;;;;;;2.20;1.10;;;;;;;24.37;55.04;99502.50;5067653;28;20467;-80
2023/09/19 07:57:19;;;;;;;4.50;2.20;;;;;;;25.06;52.91;99505.50;5064338;28;20819;-80
2023/09/19 07:59:45;;;;;;;4.60;2.70;;;;;;;25.71;51.07;99502.69;5064045;28;20769;-81
2023/09/19 08:02:15;;;;;;;3.20;1.83;;;;;;;26.22;49.39;99502.31;5068462;28;20455;-81
2023/09/19 08:04:48;;;;;;;2.63;1.30;;;;;;;26.52;47.97;99500.16;5062849;28;20197;-80
2023/09/19 08:07:14;;;;;;;3.63;2.20;;;;;;;26.86;46.13;99501.84;5062294;28;20420;-80
2023/09/19 08:09:40;;;;;;;2.17;1.03;;;;;;;27.05;45.59;99504.78;5060009;28;20329;-80
2023/09/19 08:12:08;;;;;;;1.40;1.07;;;;;;;27.09;45.36;99506.84;5043237;28;20702;-80
2023/09/19 08:14:33;;;;;;;3.93;1.13;;;;;;;27.18;45.38;99512.06;5064861;28;20225;-80
2023/09/19 08:17:00;;;;;;;2.30;1.83;;;;;;;27.29;44.88;99508.75;5071504;28;20425;-80
2023/09/19 08:19:31;;;;;;;2.60;1.83;;;;;;;27.23;44.60;99514.97;5065417;28;20235;-80
2023/09/19 08:21:58;;;;;;;6.23;3.60;;;;;;;27.06;44.36;99518.06;5055111;28;20420;-79
2023/09/19 08:24:27;;;;;;;2.40;1.53;;;;;;;27.09;44.39;99516.81;5058861;28;20762;-80
2023/09/19 08:26:54;;;;;;;3.57;1.87;;;;;;;27.30;43.92;99524.72;5058124;28;20955;-80
2023/09/19 08:29:20;;;;;;;2.67;1.30;;;;;;;27.59;43.48;99514.50;5054393;28;21115;-80
2023/09/19 08:31:47;;;;;;;1.80;1.47;;;;;;;27.86;43.06;99526.09;5061250;28;20534;-81
2023/09/19 08:34:13;;;;;;;2.13;1.53;;;;;;;28.06;42.08;99527.91;5057481;28;20893;-79
2023/09/19 08:36:39;;;;;;;1.20;0.83;;;;;;;27.98;42.10;99515.50;5059000;28;20447;-79
2023/09/19 08:39:04;;;;;;;2.20;1.77;;;;;;;27.64;42.26;99514.72;5057720;28;20428;-80
2023/09/19 08:41:30;;;;;;;2.50;1.40;;;;;;;27.61;42.69;99517.84;5058622;28;20481;-79
2023/09/19 08:44:01;;;;;;;1.40;1.03;;;;;;;27.85;41.88;99519.06;5043397;28;20229;-79
2023/09/19 08:46:35;;;;;;;2.30;1.23;;;;;;;27.88;41.52;99523.19;5054789;28;20230;-80
2023/09/19 08:49:08;;;;;;;1.80;1.00;;;;;;;27.90;41.00;99524.66;5039388;28;20430;-80
2023/09/19 08:51:40;;;;;;;1.87;0.90;;;;;;;27.94;40.70;99527.75;5059377;28;20527;-79
2023/09/19 08:54:07;;;;;;;1.50;1.20;;;;;;;27.94;40.44;99523.16;5036125;28;20693;-79
2023/09/19 08:56:33;;;;;;;1.17;0.90;;;;;;;27.75;40.54;99524.03;5052597;28;20567;-79
2023/09/19 08:59:09;;;;;;;2.20;0.93;;;;;;;27.43;41.02;99525.75;5058905;28;20469;-80
2023/09/19 09:01:35;;;;;;;1.60;1.10;;;;;;;27.32;41.60;99528.03;5060884;28;20438;-79
2023/09/19 09:04:02;;;;;;;1.50;1.40;;;;;;;27.22;41.42;99519.56;5058605;28;20526;-79
2023/09/19 09:06:29;;;;;;;1.98;1.08;;;;;;;26.82;42.07;99521.34;5053710;28;21119;-80
2023/09/19 09:08:55;;;;;;;2.10;1.20;;;;;;;26.27;42.67;99519.53;5056557;28;20551;-80
2023/09/19 09:11:21;;;;;;;1.80;1.10;;;;;;;25.68;43.79;99522.75;5055001;28;20527;-79
2023/09/19 09:13:47;;;;;;;1.77;1.07;;;;;;;25.17;44.60;99525.69;5051402;28;20709;-79
2023/09/19 09:16:17;;;;;;;1.70;1.10;;;;;;;24.92;45.41;99536.81;5058378;28;20425;-79
2023/09/19 09:18:44;;;;;;;2.00;1.17;;;;;;;24.76;45.43;99537.03;5055371;28;20944;-79
2023/09/19 09:21:10;;;;;;;1.27;1.07;;;;;;;24.50;45.59;99534.91;5058994;28;20802;-79
2023/09/19 09:23:35;;;;;;;1.63;1.03;;;;;;;24.14;46.63;99538.41;5051937;28;20996;-79
2023/09/19 09:26:05;;;;;;;3.10;1.13;;;;;;;23.79;46.98;99534.59;5056346;28;20437;-78
2023/09/19 09:28:33;;;;;;;4.63;1.50;;;;;;;23.56;47.61;99529.28;5053596;28;20220;-78
2023/09/19 09:31:02;;;;;;;2.00;1.67;;;;;;;23.42;48.12;99528.25;5054100;28;20938;-79
2023/09/19 09:33:28;;;;;;;1.20;0.80;;;;;;;23.38;48.46;99527.78;5060839;28;20843;-82
2023/09/19 09:36:02;;;;;;;1.37;1.10;;;;;;;23.45;48.48;99535.09;5067426;28;20450;-81
2023/09/19 09:38:48;;;;;;;1.70;1.03;;;;;;;23.62;47.72;99534.75;5060453;28;21001;-82
2023/09/19 09:41:27;;;;;;;2.40;1.40;;;;;;;23.89;47.15;99534.31;5060814;28;21116;-82
2023/09/19 09:43:53;;;;;;;1.13;0.90;;;;;;;24.24;46.56;99538.91;5060777;28;20532;-81
2023/09/19 09:49:14;;;;;;;2.30;1.37;;;;;;;24.72;45.12;99528.53;5061484;28;20421;-82
2023/09/19 09:51:33;;;;;;;1.77;1.40;;;;;;;24.81;45.17;99529.22;5059573;28;20481;-81
2023/09/19 09:54:12;;;;;;;1.37;1.13;;;;;;;24.84;44.34;99520.78;5061264;28;20440;-82
2023/09/19 09:57:01;;;;;;;1.30;1.00;;;;;;;24.68;43.91;99531.78;5063933;28;20238;-81
2023/09/19 09:59:50;;;;;;;1.10;1.00;;;;;;;24.61;44.43;99531.72;5060442;28;20481;-81
2023/09/19 10:02:44;;;;;;;1.00;0.90;;;;;;;24.72;44.07;99530.41;5069139;28;20710;-80
2023/09/19 10:07:53;;;;;;;1.53;1.10;;;;;;;24.71;44.73;99524.19;5062895;28;20464;-79
2023/09/19 10:13:07;;;;;;;1.67;1.20;;;;;;;24.69;44.65;99520.03;5058666;28;21023;-79
2023/09/19 10:15:33;;;;;;;1.27;1.10;;;;;;;24.77;44.32;99513.72;5063768;28;20464;-79
2023/09/19 10:18:04;;;;;;;1.70;1.40;;;;;;;24.94;44.49;99515.94;5067706;28;20931;-79
2023/09/19 10:20:35;;;;;;;2.70;1.43;;;;;;;25.09;43.65;99509.66;5069603;28;20484;-79
2023/09/19 10:23:09;;;;;;;3.50;1.33;;;;;;;24.99;43.26;99504.59;5064623;28;20449;-79
2023/09/19 10:25:36;;;;;;;2.40;1.17;;;;;;;24.99;43.48;99504.59;5065801;28;20459;-80
2023/09/19 10:28:06;;;;;;;2.73;1.23;;;;;;;25.11;43.02;99502.22;5065828;28;20541;-79
2023/09/19 10:30:36;;;;;;;2.27;1.40;;;;;;;25.21;42.70;99504.63;5061206;28;20478;-79
2023/09/19 10:33:05;;;;;;;1.53;1.07;;;;;;;25.33;43.01;99498.50;5057701;28;20449;-80
2023/09/19 10:35:33;;;;;;;2.10;1.30;;;;;;;25.51;42.41;99498.00;5057607;28;20451;-80
2023/09/19 10:38:02;;;;;;;2.40;1.20;;;;;;;25.57;41.41;99491.84;5058816;28;20516;-80
2023/09/19 10:40:31;;;;;;;4.60;3.77;;;;;;;25.52;41.90;99493.44;5058123;28;20708;-79
2023/09/19 10:43:07;;;;;;;2.13;1.00;;;;;;;25.33;42.07;99485.06;5058247;28;20454;-79
2023/09/19 10:45:38;;;;;;;1.03;0.90;;;;;;;25.26;41.93;99486.88;5055913;28;20493;-79
2023/09/19 10:48:04;;;;;;;2.10;1.27;;;;;;;25.27;41.65;99488.50;5054089;28;20466;-80
2023/09/19 10:50:36;;;;;;;3.53;1.70;;;;;;;25.29;41.70;99482.97;5056883;28;20925;-79
2023/09/19 10:53:07;;;;;;;1.47;1.30;;;;;;;25.32;41.28;99487.94;5060629;28;20989;-79
2023/09/19 10:55:35;;;;;;;2.17;1.27;;;;;;;25.38;41.18;99481.75;5060673;28;20731;-79
2023/09/19 10:58:03;;;;;;;1.80;1.30;;;;;;;25.50;41.30;99485.59;5060993;28;20477;-79
2023/09/19 11:00:34;;;;;;;2.30;1.10;;;;;;;25.69;40.78;99485.91;5059837;28;20474;-80
2023/09/19 11:03:12;;;;;;;2.10;1.33;;;;;;;25.91;40.01;99481.28;5056748;28;20466;-80
2023/09/19 11:05:41;;;;;;;1.43;1.30;;;;;;;26.10;40.06;99480.53;5060944;28;20842;-80
2023/09/19 11:08:08;;;;;;;1.83;1.20;;;;;;;26.25;39.55;99475.00;5054938;28;20459;-80
2023/09/19 11:10:50;;;;;;;1.53;1.40;;;;;;;26.42;39.84;99478.16;5033883;28;20474;-80
2023/09/19 11:13:36;;;;;;;1.50;1.10;;;;;;;26.47;39.71;99467.59;5032823;28;20451;-80
2023/09/19 11:16:04;;;;;;;1.30;1.10;;;;;;;26.48;40.01;99475.44;5038334;28;20862;-80
2023/09/19 11:18:42;;;;;;;2.17;1.20;;;;;;;26.48;39.71;99471.94;5039890;28;20467;-79
2023/09/19 11:21:35;;;;;;;2.80;1.10;;;;;;;26.30;40.32;99469.81;5043024;28;20462;-79
2023/09/19 11:24:25;;;;;;;6.07;1.27;;;;;;;26.08;40.64;99465.59;5042804;28;20518;-79
2023/09/19 11:26:51;;;;;;;2.60;1.40;;;;;;;25.79;41.33;99464.84;5038694;28;20466;-80
2023/09/19 11:29:33;;;;;;;1.93;1.47;;;;;;;25.60;40.43;99467.25;5045946;28;20850;-79
2023/09/19 11:32:02;;;;;;;1.30;1.00;;;;;;;25.51;40.61;99468.41;5041117;28;20504;-79
2023/09/19 11:34:40;;;;;;;3.87;1.53;;;;;;;25.56;40.55;99468.66;5025418;28;20541;-79
2023/09/19 11:37:15;;;;;;;1.27;1.17;;;;;;;25.67;40.75;99472.63;5042664;28;20470;-79
2023/09/19 11:40:16;;;;;;;2.23;1.30;;;;;;;25.75;40.50;99461.72;5041649;28;21239;-80
2023/09/19 11:42:49;;;;;;;1.10;1.00;;;;;;;25.89;40.87;99459.13;5038974;28;20435;-79
2023/09/19 11:45:45;;;;;;;1.83;0.90;;;;;;;25.94;40.40;99459.34;5026944;28;21006;-79
2023/09/19 11:48:15;;;;;;;1.33;1.20;;;;;;;25.92;40.59;99456.84;5052887;28;20459;-80
2023/09/19 11:50:44;;;;;;;2.53;1.00;;;;;;;25.97;40.43;99448.19;5047131;28;21008;-80